Decoded Metar for VTBD (Don Muang in Thailand) (IATA:DMK) | Meteo·Mobile Aviation Weather
aviador You're here:

VTBD Decoded Metar

Don Muang in Thailand
Report Time2018-10-17 04:30:00
UTC Time2018-10-17 04:57:03
Flight Rules vfr VFR
Wind300° at 06 kt
W.Decomp.*RWY 21: 6.0 kt RCW
W.Rank300° ranks 28
Current wind is above 300° avg. (5.9)
Visibility9999 m
Phenomena:N/A
Clouds:Few 020 Hf
Scattered 040 Hf
Expected CloudBase > 3,200 ft AGL from Temp-Dew spread
CeilingNone
Temp33°C (ISA +18)
Dew Point25°C (63% RH)
Heat Index40.6°C
QNH1011 hPa
Density Alt2,543 ft
Elevation9 ft
Report Wrong Elevation
Raw Report
VTBD 170430Z 30006KT 230V350 9999 FEW020 SCT040 33/25 Q1011
NOSIG=

Extra information for VTBD:More info

Metar Taf Metar & Taf Last 4 Metars F.Rules Stats Wind Profile Meteogram Temp Stats Airport Information Weather charts Add Link Nearby VenuesMetar ALERT Operation Metar Decoded Social comments